createdAt,value
2023-02-24T00:00:33.751Z,5.90
2023-02-24T00:01:37.974Z,5.90
2023-02-24T00:02:41.023Z,5.80
2023-02-24T00:03:45.033Z,5.80
2023-02-24T00:04:51.757Z,5.80
2023-02-24T00:05:54.238Z,5.80
2023-02-24T00:06:57.272Z,5.80
2023-02-24T00:07:59.471Z,5.80
2023-02-24T00:09:02.483Z,5.80
2023-02-24T00:10:05.371Z,5.80
2023-02-24T00:11:10.457Z,5.80
2023-02-24T00:12:14.309Z,5.90
2023-02-24T00:13:22.288Z,5.90
2023-02-24T00:14:28.121Z,5.80
2023-02-24T00:15:30.538Z,5.80
2023-02-24T00:16:34.930Z,5.80
2023-02-24T00:17:38.643Z,5.80
2023-02-24T00:18:41.681Z,5.80
2023-02-24T00:19:43.835Z,5.90
2023-02-24T00:20:47.379Z,5.80
2023-02-24T00:21:51.412Z,5.80
2023-02-24T00:22:54.475Z,5.80
2023-02-24T00:23:59.363Z,5.80
2023-02-24T00:25:03.826Z,5.90
2023-02-24T00:26:07.059Z,5.80
2023-02-24T00:27:11.812Z,5.90
2023-02-24T00:28:14.497Z,5.90
2023-02-24T00:29:18.518Z,5.90
2023-02-24T00:30:21.442Z,5.90
2023-02-24T00:31:25.095Z,5.90
2023-02-24T00:32:30.186Z,5.90
2023-02-24T00:33:35.703Z,6.00
2023-02-24T00:34:38.260Z,6.00
2023-02-24T00:35:41.294Z,6.00
2023-02-24T00:36:43.307Z,6.00
2023-02-24T00:37:51.196Z,5.90
2023-02-24T00:38:55.790Z,5.90
2023-02-24T00:39:58.768Z,5.90
2023-02-24T00:41:02.438Z,5.90
2023-02-24T00:42:06.927Z,5.90
2023-02-24T00:43:11.283Z,5.90
2023-02-24T00:44:15.933Z,5.90
2023-02-24T00:45:18.099Z,5.90
2023-02-24T00:46:25.806Z,5.90
2023-02-24T00:47:28.085Z,5.90
2023-02-24T00:48:31.531Z,6.00
2023-02-24T00:49:36.130Z,5.90
2023-02-24T00:50:40.066Z,5.90
2023-02-24T00:51:46.094Z,5.90
2023-02-24T00:52:49.784Z,5.90
2023-02-24T00:53:56.006Z,5.90
2023-02-24T00:54:59.513Z,5.90
2023-02-24T00:56:07.184Z,5.90
2023-02-24T00:57:10.994Z,5.80
2023-02-24T00:58:13.775Z,5.80
2023-02-24T00:59:20.204Z,5.80
2023-02-24T01:00:23.454Z,5.80
2023-02-24T01:01:29.288Z,5.80
2023-02-24T01:02:32.134Z,5.80
2023-02-24T01:03:35.235Z,5.70
2023-02-24T01:04:39.986Z,5.70
2023-02-24T01:05:42.990Z,5.70
2023-02-24T01:06:47.078Z,5.60
2023-02-24T01:07:50.264Z,5.60
2023-02-24T01:08:54.380Z,5.60
2023-02-24T01:09:57.582Z,5.60
2023-02-24T01:11:19.092Z,5.60
2023-02-24T01:12:49.208Z,5.60
2023-02-24T01:13:52.845Z,5.50
2023-02-24T01:14:55.285Z,5.50
2023-02-24T01:16:02.277Z,5.40
2023-02-24T01:17:05.025Z,5.40
2023-02-24T01:18:08.052Z,5.30
2023-02-24T01:19:11.263Z,5.30
2023-02-24T01:20:19.515Z,5.30
2023-02-24T01:21:22.088Z,5.30
2023-02-24T01:22:25.435Z,5.30
2023-02-24T01:23:27.735Z,5.20
2023-02-24T01:24:33.961Z,5.20
2023-02-24T01:25:36.049Z,5.20
2023-02-24T01:26:39.094Z,5.20
2023-02-24T01:27:42.108Z,5.10
2023-02-24T01:28:48.043Z,5.10
2023-02-24T01:29:50.413Z,5.10
2023-02-24T01:30:54.127Z,5.00
2023-02-24T01:31:59.493Z,5.00
2023-02-24T01:33:03.513Z,5.00
2023-02-24T01:34:06.133Z,4.90
2023-02-24T01:35:11.797Z,4.90
2023-02-24T01:36:17.112Z,4.90
2023-02-24T01:37:20.996Z,4.90
2023-02-24T01:38:23.915Z,4.90
2023-02-24T01:39:28.259Z,4.90
2023-02-24T01:40:30.329Z,4.90
2023-02-24T01:41:33.470Z,4.80
2023-02-24T01:42:35.721Z,4.80
2023-02-24T01:44:01.906Z,4.80
2023-02-24T01:45:14.147Z,4.80
2023-02-24T01:46:17.629Z,4.80
2023-02-24T01:47:20.882Z,4.70
2023-02-24T01:48:25.266Z,4.70
2023-02-24T01:49:34.162Z,4.70
2023-02-24T01:50:38.929Z,4.70
2023-02-24T01:51:47.317Z,4.70
2023-02-24T01:52:56.095Z,4.80
2023-02-24T01:53:58.867Z,4.70
2023-02-24T01:55:07.166Z,4.70
2023-02-24T01:56:13.663Z,4.80
2023-02-24T01:57:20.404Z,4.70
2023-02-24T01:58:26.199Z,4.70
2023-02-24T01:59:31.797Z,4.70
2023-02-24T02:00:37.587Z,4.70
2023-02-24T02:01:42.993Z,4.70
2023-02-24T02:02:48.096Z,4.70
2023-02-24T02:03:52.266Z,4.70
2023-02-24T02:04:57.139Z,4.70
2023-02-24T02:06:04.384Z,4.70
2023-02-24T02:07:10.045Z,4.70
2023-02-24T02:08:14.865Z,4.60
2023-02-24T02:09:17.454Z,4.60
2023-02-24T02:10:20.929Z,4.60
2023-02-24T02:11:23.597Z,4.60
2023-02-24T02:12:27.922Z,4.60
2023-02-24T02:13:35.670Z,4.60
2023-02-24T02:14:43.080Z,4.60
2023-02-24T02:15:52.850Z,4.60
2023-02-24T02:17:10.740Z,4.60
2023-02-24T02:18:20.203Z,4.60
2023-02-24T02:19:49.547Z,4.60
2023-02-24T02:21:36.220Z,4.60
2023-02-24T02:23:00.874Z,4.60
2023-02-24T02:24:23.106Z,4.60
2023-02-24T02:25:39.027Z,4.60
2023-02-24T02:26:58.096Z,4.60
2023-02-24T02:28:32.567Z,4.60
2023-02-24T02:30:06.949Z,4.60
2023-02-24T02:31:50.788Z,4.60
2023-02-24T02:33:36.053Z,4.60
2023-02-24T02:34:51.401Z,4.70
2023-02-24T02:36:01.057Z,4.70
2023-02-24T02:37:08.231Z,4.70
2023-02-24T02:38:25.300Z,4.70
2023-02-24T02:39:39.246Z,4.70
2023-02-24T02:40:49.863Z,4.70
2023-02-24T02:41:56.206Z,4.70
2023-02-24T02:43:05.490Z,4.70
2023-02-24T02:44:11.963Z,4.70
2023-02-24T02:45:20.680Z,4.70
2023-02-24T02:46:34.815Z,4.70
2023-02-24T02:47:43.345Z,4.80
2023-02-24T02:48:52.576Z,4.80
2023-02-24T02:50:02.644Z,4.80
2023-02-24T02:51:07.728Z,4.80
2023-02-24T02:52:17.817Z,4.90
2023-02-24T02:53:26.377Z,4.90
2023-02-24T02:54:36.280Z,4.90
2023-02-24T02:55:42.729Z,4.90
2023-02-24T02:56:49.652Z,4.90
2023-02-24T02:57:55.253Z,5.00
2023-02-24T02:59:01.684Z,5.00
2023-02-24T03:00:11.377Z,5.10
2023-02-24T03:01:20.974Z,5.10
2023-02-24T03:02:29.739Z,5.10
2023-02-24T03:03:39.672Z,5.10
2023-02-24T03:04:44.032Z,5.10
2023-02-24T03:05:53.178Z,5.10
2023-02-24T03:07:00.756Z,5.10
2023-02-24T03:08:11.208Z,5.10
2023-02-24T03:09:19.238Z,5.20
2023-02-24T03:10:27.540Z,5.20
2023-02-24T03:11:32.474Z,5.20
2023-02-24T03:12:37.298Z,5.30
2023-02-24T03:13:45.513Z,5.30
2023-02-24T03:14:51.970Z,5.30
2023-02-24T03:15:56.328Z,5.30
2023-02-24T03:16:59.265Z,5.40
2023-02-24T03:18:10.231Z,5.40
2023-02-24T03:19:15.152Z,5.50
2023-02-24T03:20:23.577Z,5.50
2023-02-24T03:21:33.061Z,5.50
2023-02-24T03:22:43.387Z,5.60
2023-02-24T03:23:49.376Z,5.60
2023-02-24T03:24:53.672Z,5.60
2023-02-24T03:26:17.078Z,5.70
2023-02-24T03:27:26.278Z,5.70
2023-02-24T03:28:35.822Z,5.70
2023-02-24T03:29:44.543Z,5.70
2023-02-24T03:30:53.720Z,5.80
2023-02-24T03:32:00.745Z,5.80
2023-02-24T03:33:11.435Z,5.90
2023-02-24T03:34:18.840Z,5.90
2023-02-24T03:35:27.283Z,5.90
2023-02-24T03:36:33.061Z,5.90
2023-02-24T03:37:37.394Z,6.00
2023-02-24T03:38:41.679Z,6.00
2023-02-24T03:39:47.674Z,6.00
2023-02-24T03:40:56.558Z,6.10
2023-02-24T03:42:08.094Z,6.10
2023-02-24T03:43:16.870Z,6.10
2023-02-24T03:44:20.210Z,6.20
2023-02-24T03:45:23.149Z,6.20
2023-02-24T03:46:26.996Z,6.20
2023-02-24T03:47:30.261Z,6.20
2023-02-24T03:48:35.679Z,6.20
2023-02-24T03:49:38.419Z,6.20
2023-02-24T03:50:44.196Z,6.20
2023-02-24T03:52:14.066Z,6.30
2023-02-24T03:53:32.056Z,6.30
2023-02-24T03:54:49.977Z,6.30
2023-02-24T03:56:05.095Z,6.30
2023-02-24T03:57:27.774Z,6.30
2023-02-24T03:58:43.858Z,6.30
2023-02-24T03:59:53.009Z,6.30
2023-02-24T04:01:00.819Z,6.30
2023-02-24T04:02:10.473Z,6.20
2023-02-24T04:03:25.932Z,6.20
2023-02-24T04:04:38.893Z,6.20
2023-02-24T04:06:09.546Z,6.20
2023-02-24T04:07:16.330Z,6.20
2023-02-24T04:08:23.339Z,6.20
2023-02-24T04:09:33.213Z,6.20
2023-02-24T04:10:52.641Z,6.20
2023-02-24T04:12:09.133Z,6.10
2023-02-24T04:13:19.497Z,6.10
2023-02-24T04:14:31.722Z,6.10
2023-02-24T04:15:38.504Z,6.10
2023-02-24T04:16:49.192Z,6.10
2023-02-24T04:17:54.786Z,6.10
2023-02-24T04:19:04.409Z,6.10
2023-02-24T04:20:17.224Z,6.10
2023-02-24T04:21:28.534Z,6.10
2023-02-24T04:22:36.161Z,6.10
2023-02-24T04:23:43.256Z,6.10
2023-02-24T04:24:51.217Z,6.10
2023-02-24T04:25:56.294Z,6.10
2023-02-24T04:27:02.163Z,6.10
2023-02-24T04:28:10.444Z,6.10
2023-02-24T04:29:20.502Z,6.10
2023-02-24T04:30:26.338Z,6.10
2023-02-24T04:31:29.939Z,6.20
2023-02-24T04:32:34.326Z,6.10
2023-02-24T04:33:38.443Z,6.20
2023-02-24T04:34:42.428Z,6.20
2023-02-24T04:35:45.625Z,6.20
2023-02-24T04:36:49.550Z,6.20
2023-02-24T04:37:55.130Z,6.20
2023-02-24T04:38:58.490Z,6.10
2023-02-24T04:40:02.179Z,6.10
2023-02-24T04:41:05.962Z,6.10
2023-02-24T04:42:08.071Z,6.10
2023-02-24T04:43:11.219Z,6.10
2023-02-24T04:44:13.458Z,6.10
2023-02-24T04:45:18.558Z,6.20
2023-02-24T04:46:20.741Z,6.20
2023-02-24T04:47:23.808Z,6.20
2023-02-24T04:48:25.910Z,6.20
2023-02-24T04:49:28.987Z,6.20
2023-02-24T04:50:36.015Z,6.20
2023-02-24T04:51:42.344Z,6.20
2023-02-24T04:52:44.850Z,6.20
2023-02-24T04:53:51.615Z,6.10
2023-02-24T04:54:53.621Z,6.10
2023-02-24T04:55:57.186Z,6.10
2023-02-24T04:56:59.470Z,6.10
2023-02-24T04:58:02.858Z,6.10
2023-02-24T04:59:04.929Z,6.10
2023-02-24T05:00:20.772Z,6.10
2023-02-24T05:01:23.114Z,6.10
2023-02-24T05:02:26.194Z,6.10
2023-02-24T05:03:30.148Z,6.10
2023-02-24T05:04:38.769Z,6.10
2023-02-24T05:05:51.897Z,6.10
2023-02-24T05:06:57.347Z,6.10
2023-02-24T05:08:03.036Z,6.10
2023-02-24T05:09:14.122Z,6.10
2023-02-24T05:10:18.836Z,6.10
2023-02-24T05:11:22.246Z,6.10
2023-02-24T05:12:24.528Z,6.10
2023-02-24T05:13:31.651Z,6.10
2023-02-24T05:14:33.694Z,6.10
2023-02-24T05:15:41.662Z,6.10
2023-02-24T05:16:45.955Z,6.20
2023-02-24T05:17:51.518Z,6.10
2023-02-24T05:19:08.620Z,6.10
2023-02-24T05:20:30.053Z,6.20
2023-02-24T05:21:36.322Z,6.20
2023-02-24T05:22:38.362Z,6.20
2023-02-24T05:23:44.315Z,6.20
2023-02-24T05:24:48.033Z,6.20
2023-02-24T05:25:54.942Z,6.20
2023-02-24T05:26:58.477Z,6.20
2023-02-24T05:28:04.040Z,6.20
2023-02-24T05:29:07.670Z,6.20
2023-02-24T05:30:11.423Z,6.20
2023-02-24T05:31:16.092Z,6.20
2023-02-24T05:32:18.895Z,6.30
2023-02-24T05:33:22.791Z,6.30
2023-02-24T05:34:25.476Z,6.30
2023-02-24T05:35:29.604Z,6.30
2023-02-24T05:36:34.064Z,6.30
2023-02-24T05:37:42.011Z,6.30
2023-02-24T05:38:44.877Z,6.30
2023-02-24T05:39:49.219Z,6.30
2023-02-24T05:40:57.482Z,6.30
2023-02-24T05:42:06.116Z,6.20
2023-02-24T05:43:08.288Z,6.20
2023-02-24T05:44:15.673Z,6.20
2023-02-24T05:45:18.322Z,6.20
2023-02-24T05:46:28.100Z,6.10
2023-02-24T05:47:30.213Z,6.10
2023-02-24T05:48:35.094Z,6.10
2023-02-24T05:49:38.788Z,6.10
2023-02-24T05:50:46.000Z,6.10
2023-02-24T05:51:54.685Z,6.10
2023-02-24T05:52:57.995Z,6.10
2023-02-24T05:54:00.139Z,6.10
2023-02-24T05:55:07.281Z,6.10
2023-02-24T05:56:09.885Z,6.10
2023-02-24T05:57:17.023Z,6.10
2023-02-24T05:58:19.198Z,6.20
2023-02-24T05:59:22.225Z,6.20
2023-02-24T06:00:25.878Z,6.20
2023-02-24T06:01:30.277Z,6.20
2023-02-24T06:02:37.541Z,6.20
2023-02-24T06:03:46.603Z,6.20
2023-02-24T06:04:53.846Z,6.30
2023-02-24T06:05:59.208Z,6.20
2023-02-24T06:07:03.720Z,6.30
2023-02-24T06:08:05.900Z,6.30
2023-02-24T06:09:13.007Z,6.30
2023-02-24T06:10:17.179Z,6.30
2023-02-24T06:11:21.729Z,6.30
2023-02-24T06:12:27.290Z,6.40
2023-02-24T06:13:30.333Z,6.40
2023-02-24T06:14:34.145Z,6.40
2023-02-24T06:15:37.465Z,6.40
2023-02-24T06:16:43.467Z,6.40
2023-02-24T06:17:45.567Z,6.40
2023-02-24T06:18:50.528Z,6.50
2023-02-24T06:19:54.056Z,6.50
2023-02-24T06:20:57.094Z,6.50
2023-02-24T06:22:01.697Z,6.50
2023-02-24T06:23:05.337Z,6.60
2023-02-24T06:24:10.582Z,6.60
2023-02-24T06:25:13.862Z,6.60
2023-02-24T06:26:19.609Z,6.60
2023-02-24T06:27:24.757Z,6.70
2023-02-24T06:28:27.544Z,6.80
2023-02-24T06:29:31.541Z,6.80
2023-02-24T06:30:35.026Z,6.80
2023-02-24T06:31:38.312Z,6.80
2023-02-24T06:32:41.859Z,6.80
2023-02-24T06:33:44.004Z,6.90
2023-02-24T06:34:47.073Z,6.90
2023-02-24T06:35:49.146Z,6.90
2023-02-24T06:36:52.748Z,6.90
2023-02-24T06:37:55.817Z,6.90
2023-02-24T06:38:59.025Z,6.90
2023-02-24T06:40:01.478Z,6.90
2023-02-24T06:41:10.845Z,6.90
2023-02-24T06:42:14.398Z,6.90
2023-02-24T06:43:17.537Z,6.90
2023-02-24T06:44:19.889Z,7.00
2023-02-24T06:45:24.175Z,7.00
2023-02-24T06:46:26.594Z,7.00
2023-02-24T06:47:29.713Z,6.90
2023-02-24T06:48:33.827Z,6.90
2023-02-24T06:49:37.574Z,6.90
2023-02-24T06:50:42.090Z,6.90
2023-02-24T06:51:45.448Z,6.90
2023-02-24T06:52:48.059Z,6.90
2023-02-24T06:53:52.547Z,6.80
2023-02-24T06:54:54.606Z,6.80
2023-02-24T06:55:57.668Z,6.80
2023-02-24T06:56:59.778Z,6.70
2023-02-24T06:58:04.980Z,6.70
2023-02-24T06:59:07.128Z,6.70
2023-02-24T07:00:16.934Z,6.70
2023-02-24T07:01:22.223Z,6.60
2023-02-24T07:02:29.902Z,6.60
2023-02-24T07:03:40.088Z,6.60
2023-02-24T07:04:44.677Z,6.50
2023-02-24T07:05:50.221Z,6.50
2023-02-24T07:06:56.042Z,6.40
2023-02-24T07:07:58.144Z,6.40
2023-02-24T07:09:07.062Z,6.40
2023-02-24T07:10:10.433Z,6.30
2023-02-24T07:11:14.037Z,6.20
2023-02-24T07:12:20.967Z,6.20
2023-02-24T07:13:25.932Z,6.20
2023-02-24T07:14:31.301Z,6.10
2023-02-24T07:15:36.948Z,6.10
2023-02-24T07:16:42.686Z,6.10
2023-02-24T07:17:46.132Z,6.10
2023-02-24T07:18:50.392Z,6.10
2023-02-24T07:19:54.560Z,6.10
2023-02-24T07:21:05.061Z,6.10
2023-02-24T07:22:09.559Z,6.20
2023-02-24T07:23:13.784Z,6.20
2023-02-24T07:24:24.857Z,6.20
2023-02-24T07:25:33.380Z,6.20
2023-02-24T07:26:41.566Z,6.20
2023-02-24T07:27:43.788Z,6.30
2023-02-24T07:28:49.032Z,6.30
2023-02-24T07:29:53.271Z,6.30
2023-02-24T07:30:57.450Z,6.30
2023-02-24T07:32:01.591Z,6.40
2023-02-24T07:33:05.162Z,6.50
2023-02-24T07:34:07.207Z,6.50
2023-02-24T07:35:10.480Z,6.60
2023-02-24T07:36:14.868Z,6.60
2023-02-24T07:37:20.042Z,6.70
2023-02-24T07:38:22.999Z,6.80
2023-02-24T07:39:26.535Z,6.80
2023-02-24T07:40:28.953Z,6.80
2023-02-24T07:41:31.970Z,6.90
2023-02-24T07:42:36.361Z,6.90
2023-02-24T07:43:42.108Z,6.90
2023-02-24T07:44:49.084Z,7.00
2023-02-24T07:45:52.804Z,7.00
2023-02-24T07:46:56.702Z,7.10
2023-02-24T07:48:01.397Z,7.10
2023-02-24T07:49:04.869Z,7.20
2023-02-24T07:50:13.428Z,7.20
2023-02-24T07:51:19.400Z,7.20
2023-02-24T07:52:22.768Z,7.30
2023-02-24T07:53:27.570Z,7.30
2023-02-24T07:54:30.920Z,7.40
2023-02-24T07:55:35.914Z,7.40
2023-02-24T07:56:46.053Z,7.50
2023-02-24T07:57:49.248Z,7.50
2023-02-24T07:58:51.250Z,7.60
2023-02-24T07:59:55.676Z,7.60
2023-02-24T08:01:08.147Z,7.60
2023-02-24T08:02:11.595Z,7.60
2023-02-24T08:03:14.067Z,7.70
2023-02-24T08:04:18.822Z,7.70
2023-02-24T08:05:22.943Z,7.80
2023-02-24T08:06:37.693Z,7.90
2023-02-24T08:07:40.764Z,7.90
2023-02-24T08:08:57.833Z,8.00
2023-02-24T08:10:24.354Z,8.10
2023-02-24T08:11:35.491Z,8.10
2023-02-24T08:12:42.705Z,8.20
2023-02-24T08:13:45.016Z,8.30
2023-02-24T08:14:50.822Z,8.30
2023-02-24T08:15:57.648Z,8.30
2023-02-24T08:16:59.949Z,8.40
2023-02-24T08:18:03.193Z,8.40
2023-02-24T08:19:05.971Z,8.40
2023-02-24T08:20:22.496Z,8.40
2023-02-24T08:21:27.293Z,8.40
2023-02-24T08:22:37.216Z,8.50
2023-02-24T08:23:44.593Z,8.50
2023-02-24T08:24:50.135Z,8.50
2023-02-24T08:25:53.765Z,8.40
2023-02-24T08:27:04.326Z,8.40
2023-02-24T08:28:11.542Z,8.40
2023-02-24T08:29:14.845Z,8.40
2023-02-24T08:30:23.475Z,8.40
2023-02-24T08:31:28.115Z,8.40
2023-02-24T08:32:33.998Z,8.30
2023-02-24T08:33:37.425Z,8.30
2023-02-24T08:34:39.679Z,8.30
2023-02-24T08:35:44.709Z,8.30
2023-02-24T08:36:55.829Z,8.30
2023-02-24T08:38:04.181Z,8.30
2023-02-24T08:39:07.162Z,8.40
2023-02-24T08:40:32.303Z,8.50
2023-02-24T08:41:45.788Z,8.60
2023-02-24T08:42:50.114Z,8.70
2023-02-24T08:43:53.214Z,8.80
2023-02-24T08:44:55.297Z,8.90
2023-02-24T08:46:03.608Z,9.00
2023-02-24T08:47:10.688Z,9.10
2023-02-24T08:48:26.179Z,9.20
2023-02-24T08:49:29.289Z,9.30
2023-02-24T08:50:33.766Z,9.50
2023-02-24T08:51:43.711Z,9.60
2023-02-24T08:52:45.819Z,9.80
2023-02-24T08:53:53.103Z,9.90
2023-02-24T08:54:59.216Z,9.90
2023-02-24T08:56:09.515Z,10.00
2023-02-24T08:57:15.211Z,10.00
2023-02-24T08:58:18.455Z,10.00
2023-02-24T08:59:37.670Z,9.90
2023-02-24T09:00:49.070Z,9.90
2023-02-24T09:02:13.212Z,10.00
2023-02-24T09:03:28.030Z,10.00
2023-02-24T09:04:31.153Z,10.00
2023-02-24T09:05:33.734Z,10.00
2023-02-24T09:06:40.970Z,10.10
2023-02-24T09:07:44.404Z,10.10
2023-02-24T09:08:46.468Z,10.10
2023-02-24T09:09:50.185Z,10.10
2023-02-24T09:10:52.225Z,10.10
2023-02-24T09:11:57.359Z,10.10
2023-02-24T09:13:01.223Z,10.20
2023-02-24T09:14:04.809Z,10.20
2023-02-24T09:15:10.362Z,10.20
2023-02-24T09:16:16.451Z,10.20
2023-02-24T09:17:30.797Z,10.30
2023-02-24T09:18:39.283Z,10.30
2023-02-24T09:20:02.262Z,10.40
2023-02-24T09:21:33.090Z,10.40
2023-02-24T09:22:57.153Z,10.50
2023-02-24T09:24:03.456Z,10.60
2023-02-24T09:25:21.222Z,10.60
2023-02-24T09:26:24.385Z,10.60
2023-02-24T09:27:29.237Z,10.60
2023-02-24T09:28:48.479Z,10.60
2023-02-24T09:29:50.553Z,10.60
2023-02-24T09:30:55.241Z,10.60
2023-02-24T09:32:04.603Z,10.70
2023-02-24T09:33:17.718Z,10.70
2023-02-24T09:34:30.069Z,10.90
2023-02-24T09:35:36.599Z,11.00
2023-02-24T09:36:44.994Z,11.10
2023-02-24T09:37:47.053Z,11.20
2023-02-24T09:39:09.230Z,11.30
2023-02-24T09:40:40.188Z,11.40
2023-02-24T09:41:56.508Z,11.60
2023-02-24T09:42:58.879Z,11.80
2023-02-24T09:44:07.418Z,11.90
2023-02-24T09:45:19.192Z,12.10
2023-02-24T09:46:21.553Z,12.20
2023-02-24T09:47:40.753Z,12.30
2023-02-24T09:48:51.466Z,12.40
2023-02-24T09:49:59.072Z,12.50
2023-02-24T09:51:05.217Z,12.60
2023-02-24T09:52:16.996Z,12.60
2023-02-24T09:53:19.374Z,12.60
2023-02-24T09:54:24.547Z,12.60
2023-02-24T09:55:35.765Z,12.60
2023-02-24T09:56:42.902Z,12.70
2023-02-24T09:58:26.942Z,12.70
2023-02-24T09:59:40.789Z,12.80
2023-02-24T10:00:52.212Z,12.80
2023-02-24T10:02:02.833Z,12.90
2023-02-24T10:03:20.303Z,12.90
2023-02-24T10:04:53.817Z,12.90
2023-02-24T10:06:12.147Z,13.00
2023-02-24T10:07:17.927Z,13.10
2023-02-24T10:08:26.297Z,13.20
2023-02-24T10:09:34.655Z,13.30
2023-02-24T10:10:38.922Z,13.30
2023-02-24T10:11:53.502Z,13.20
2023-02-24T10:13:14.779Z,13.20
2023-02-24T10:14:19.505Z,13.10
2023-02-24T10:15:42.269Z,13.10
2023-02-24T10:16:58.795Z,13.20
2023-02-24T10:18:27.303Z,13.30
2023-02-24T10:19:34.349Z,13.30
2023-02-24T10:20:45.617Z,13.20
2023-02-24T10:22:02.684Z,13.20
2023-02-24T10:23:12.076Z,13.10
2023-02-24T10:24:22.896Z,13.00
2023-02-24T10:25:40.979Z,12.90
2023-02-24T10:26:59.986Z,12.70
2023-02-24T10:28:13.448Z,12.50
2023-02-24T10:29:29.509Z,12.40
2023-02-24T10:30:43.298Z,12.30
2023-02-24T10:31:48.015Z,12.10
2023-02-24T10:32:58.635Z,12.00
2023-02-24T10:34:06.143Z,11.90
2023-02-24T10:35:16.263Z,11.90
2023-02-24T10:36:25.890Z,11.80
2023-02-24T10:37:30.342Z,11.80
2023-02-24T10:38:34.112Z,11.80
2023-02-24T10:39:42.436Z,11.80
2023-02-24T10:40:46.977Z,11.90
2023-02-24T10:41:57.345Z,11.90
2023-02-24T10:43:10.589Z,11.90
2023-02-24T10:44:20.927Z,12.00
2023-02-24T10:45:26.332Z,12.10
2023-02-24T10:46:41.090Z,12.10
2023-02-24T10:47:46.402Z,12.20
2023-02-24T10:48:52.701Z,12.30
2023-02-24T10:49:58.951Z,12.40
2023-02-24T10:51:09.958Z,12.60
2023-02-24T10:52:33.319Z,12.60
2023-02-24T10:53:37.669Z,12.70
2023-02-24T10:55:05.068Z,12.80
2023-02-24T10:56:41.783Z,12.90
2023-02-24T10:57:58.687Z,13.00
2023-02-24T10:59:21.772Z,13.10
2023-02-24T11:00:41.796Z,13.20
2023-02-24T11:01:59.206Z,13.40
2023-02-24T11:03:08.438Z,13.50
2023-02-24T11:04:33.279Z,13.50
2023-02-24T11:06:04.167Z,13.50
2023-02-24T11:07:11.970Z,13.40
2023-02-24T11:08:36.452Z,13.40
2023-02-24T11:09:52.281Z,13.50
2023-02-24T11:10:58.774Z,13.60
2023-02-24T11:12:24.349Z,13.60
2023-02-24T11:13:45.641Z,13.60
2023-02-24T11:15:11.163Z,13.70
2023-02-24T11:16:31.502Z,13.80
2023-02-24T11:17:36.896Z,13.90
2023-02-24T11:18:40.824Z,13.90
2023-02-24T11:19:47.602Z,13.80
2023-02-24T11:20:55.214Z,13.70
2023-02-24T11:21:58.417Z,13.50
2023-02-24T11:23:05.094Z,13.50
2023-02-24T11:24:13.118Z,13.40
2023-02-24T11:25:25.182Z,13.40
2023-02-24T11:26:36.435Z,13.40
2023-02-24T11:27:42.941Z,13.40
2023-02-24T11:29:04.002Z,13.50
2023-02-24T11:30:16.522Z,13.60
2023-02-24T11:31:35.250Z,13.50
2023-02-24T11:33:04.258Z,13.40
2023-02-24T11:34:11.648Z,13.30
2023-02-24T11:35:23.203Z,13.10
2023-02-24T11:36:37.151Z,13.10
2023-02-24T11:37:43.379Z,13.10
2023-02-24T11:38:52.337Z,13.10
2023-02-24T11:40:00.541Z,13.00
2023-02-24T11:41:14.912Z,13.00
2023-02-24T11:42:24.369Z,12.80
2023-02-24T11:43:31.591Z,12.70
2023-02-24T11:44:39.190Z,12.50
2023-02-24T11:45:47.146Z,12.40
2023-02-24T11:46:52.148Z,12.40
2023-02-24T11:47:59.807Z,12.50
2023-02-24T11:49:08.681Z,12.50
2023-02-24T11:50:26.731Z,12.60
2023-02-24T11:51:33.905Z,12.70
2023-02-24T11:52:40.415Z,12.90
2023-02-24T11:53:49.990Z,13.00
2023-02-24T11:54:57.687Z,13.10
2023-02-24T11:56:03.667Z,13.20
2023-02-24T11:57:15.349Z,13.40
2023-02-24T11:58:23.287Z,13.60
2023-02-24T11:59:34.441Z,13.60
2023-02-24T12:00:41.045Z,13.70
2023-02-24T12:01:52.671Z,13.80
2023-02-24T12:03:03.957Z,13.90
2023-02-24T12:04:18.685Z,14.00
2023-02-24T12:05:25.218Z,13.90
2023-02-24T12:06:32.903Z,13.90
2023-02-24T12:07:40.573Z,13.70
2023-02-24T12:08:46.790Z,13.80
2023-02-24T12:09:58.285Z,13.70
2023-02-24T12:11:18.008Z,13.70
2023-02-24T12:12:28.995Z,13.60
2023-02-24T12:13:39.187Z,13.60
2023-02-24T12:14:47.834Z,13.70
2023-02-24T12:15:57.560Z,13.70
2023-02-24T12:17:10.508Z,13.60
2023-02-24T12:18:23.331Z,13.60
2023-02-24T12:19:33.164Z,13.70
2023-02-24T12:20:41.859Z,13.70
2023-02-24T12:21:49.227Z,13.80
2023-02-24T12:22:56.469Z,13.80
2023-02-24T12:23:59.367Z,13.80
2023-02-24T12:25:02.362Z,13.60
2023-02-24T12:26:16.871Z,13.50
2023-02-24T12:27:35.268Z,13.50
2023-02-24T12:29:10.701Z,13.50
2023-02-24T12:30:38.221Z,13.70
2023-02-24T12:31:54.431Z,13.90
2023-02-24T12:33:03.423Z,14.00
2023-02-24T12:34:11.989Z,14.20
2023-02-24T12:35:20.028Z,14.30
2023-02-24T12:36:34.274Z,14.40
2023-02-24T12:37:58.486Z,14.40
2023-02-24T12:39:10.584Z,14.20
2023-02-24T12:40:27.382Z,14.20
2023-02-24T12:41:40.356Z,14.00
2023-02-24T12:42:51.167Z,14.20
2023-02-24T12:43:59.908Z,14.40
2023-02-24T12:45:14.515Z,14.50
2023-02-24T12:46:24.321Z,14.60
2023-02-24T12:47:38.568Z,14.60
2023-02-24T12:49:15.312Z,14.70
2023-02-24T12:50:32.454Z,14.80
2023-02-24T12:51:42.765Z,14.90
2023-02-24T12:52:58.927Z,14.90
2023-02-24T12:54:10.150Z,14.90
2023-02-24T12:55:22.920Z,14.80
2023-02-24T12:56:28.038Z,14.80
2023-02-24T12:57:41.442Z,14.60
2023-02-24T12:58:49.441Z,14.70
2023-02-24T12:59:53.020Z,14.60
2023-02-24T13:01:06.743Z,14.60
2023-02-24T13:02:20.787Z,14.60
2023-02-24T13:03:36.699Z,14.50
2023-02-24T13:04:46.399Z,14.40
2023-02-24T13:05:57.073Z,14.30
2023-02-24T13:07:19.700Z,14.30
2023-02-24T13:08:31.159Z,14.20
2023-02-24T13:09:42.134Z,14.20
2023-02-24T13:10:49.675Z,13.90
2023-02-24T13:11:59.784Z,13.60
2023-02-24T13:13:11.436Z,13.60
2023-02-24T13:14:24.192Z,13.70
2023-02-24T13:15:31.369Z,13.80
2023-02-24T13:16:35.663Z,13.70
2023-02-24T13:17:48.047Z,13.50
2023-02-24T13:18:50.341Z,13.40
2023-02-24T13:19:55.873Z,13.30
2023-02-24T13:21:08.202Z,13.30
2023-02-24T13:22:26.661Z,13.30
2023-02-24T13:23:31.718Z,13.30
2023-02-24T13:24:36.680Z,13.40
2023-02-24T13:25:41.083Z,13.40
2023-02-24T13:26:43.378Z,13.50
2023-02-24T13:27:59.489Z,13.60
2023-02-24T13:29:03.707Z,13.70
2023-02-24T13:30:26.680Z,13.70
2023-02-24T13:31:42.635Z,13.70
2023-02-24T13:32:47.596Z,13.70
2023-02-24T13:33:52.609Z,13.90
2023-02-24T13:34:55.328Z,13.90
2023-02-24T13:36:14.373Z,14.00
2023-02-24T13:37:27.617Z,13.90
2023-02-24T13:38:37.867Z,13.90
2023-02-24T13:39:41.447Z,13.90
2023-02-24T13:40:44.507Z,13.90
2023-02-24T13:41:46.586Z,13.90
2023-02-24T13:43:00.041Z,13.90
2023-02-24T13:44:05.551Z,13.90
2023-02-24T13:45:20.896Z,14.00
2023-02-24T13:46:23.249Z,14.10
2023-02-24T13:47:56.600Z,14.10
2023-02-24T13:49:19.444Z,14.10
2023-02-24T13:50:25.577Z,14.10
2023-02-24T13:51:52.499Z,14.10
2023-02-24T13:53:23.680Z,14.10
2023-02-24T13:54:55.623Z,14.10
2023-02-24T13:56:21.476Z,14.10
2023-02-24T13:57:49.673Z,14.00
2023-02-24T13:59:14.493Z,14.00
2023-02-24T14:00:28.872Z,13.90
2023-02-24T14:01:45.514Z,13.80
2023-02-24T14:02:52.925Z,13.70
2023-02-24T14:04:06.818Z,13.60
2023-02-24T14:05:13.390Z,13.50
2023-02-24T14:06:21.879Z,13.50
2023-02-24T14:07:28.272Z,13.50
2023-02-24T14:08:40.285Z,13.60
2023-02-24T14:09:47.341Z,13.60
2023-02-24T14:10:54.191Z,13.60
2023-02-24T14:12:01.933Z,13.70
2023-02-24T14:13:08.581Z,13.70
2023-02-24T14:14:16.129Z,13.70
2023-02-24T14:15:25.092Z,13.60
2023-02-24T14:16:33.120Z,13.50
2023-02-24T14:17:36.945Z,13.40
2023-02-24T14:18:39.903Z,13.40
2023-02-24T14:19:41.973Z,13.50
2023-02-24T14:20:45.295Z,13.50
2023-02-24T14:21:51.038Z,13.60
2023-02-24T14:22:56.040Z,13.70
2023-02-24T14:24:00.722Z,13.80
2023-02-24T14:25:03.905Z,13.90
2023-02-24T14:26:09.664Z,14.00
2023-02-24T14:27:21.978Z,14.10
2023-02-24T14:28:29.731Z,14.10
2023-02-24T14:29:43.663Z,14.20
2023-02-24T14:30:54.325Z,14.30
2023-02-24T14:31:59.314Z,14.30
2023-02-24T14:33:03.781Z,14.40
2023-02-24T14:34:09.030Z,14.20
2023-02-24T14:35:19.977Z,14.30
2023-02-24T14:36:25.937Z,14.30
2023-02-24T14:37:31.938Z,14.30
2023-02-24T14:38:37.290Z,14.30
2023-02-24T14:39:39.422Z,14.40
2023-02-24T14:40:48.612Z,14.40
2023-02-24T14:41:52.283Z,14.50
2023-02-24T14:42:57.061Z,14.50
2023-02-24T14:44:08.366Z,14.60
2023-02-24T14:45:18.683Z,14.60
2023-02-24T14:46:22.549Z,14.70
2023-02-24T14:47:28.715Z,14.70
2023-02-24T14:48:32.600Z,14.80
2023-02-24T14:49:36.719Z,14.80
2023-02-24T14:50:39.899Z,14.80
2023-02-24T14:51:42.067Z,14.70
2023-02-24T14:52:49.775Z,14.70
2023-02-24T14:53:54.385Z,14.70
2023-02-24T14:55:03.305Z,14.60
2023-02-24T14:56:07.598Z,14.50
2023-02-24T14:57:12.907Z,14.40
2023-02-24T14:58:20.583Z,14.30
2023-02-24T14:59:29.579Z,14.30